createdAt,value
2019-02-15T00:02:39.318Z,19.70
2019-02-15T00:05:44.687Z,19.70
2019-02-15T00:08:50.094Z,19.80
2019-02-15T00:11:55.495Z,19.80
2019-02-15T00:15:00.874Z,19.80
2019-02-15T00:18:34.254Z,19.80
2019-02-15T00:21:42.822Z,19.80
2019-02-15T00:24:49.445Z,19.80
2019-02-15T00:27:54.814Z,19.80
2019-02-15T00:31:01.439Z,19.80
2019-02-15T00:34:06.848Z,19.80
2019-02-15T00:37:12.276Z,19.80
2019-02-15T00:40:19.247Z,19.70
2019-02-15T00:43:25.410Z,19.70
2019-02-15T00:46:57.812Z,19.70
2019-02-15T00:50:15.106Z,19.70
2019-02-15T00:53:37.895Z,19.60
2019-02-15T00:56:57.821Z,19.60
2019-02-15T01:00:35.665Z,19.60
2019-02-15T01:03:47.121Z,19.50
2019-02-15T01:07:17.447Z,19.50
2019-02-15T01:10:30.681Z,19.50
2019-02-15T01:13:36.067Z,19.50
2019-02-15T01:16:41.456Z,19.50
2019-02-15T01:19:46.855Z,19.50
2019-02-15T01:22:52.267Z,19.50
2019-02-15T01:26:10.502Z,19.40
2019-02-15T01:29:47.074Z,19.40
2019-02-15T01:33:03.140Z,19.40
2019-02-15T01:36:24.497Z,19.40
2019-02-15T01:39:40.006Z,19.40
2019-02-15T01:43:01.303Z,19.40
2019-02-15T01:46:19.489Z,19.40
2019-02-15T01:49:24.904Z,19.40
2019-02-15T01:52:31.400Z,19.40
2019-02-15T01:55:37.769Z,19.40
2019-02-15T01:58:43.206Z,19.40
2019-02-15T02:01:48.554Z,19.40
2019-02-15T02:04:53.959Z,19.40
2019-02-15T02:08:00.837Z,19.40
2019-02-15T02:11:06.233Z,19.40
2019-02-15T02:14:11.617Z,19.40
2019-02-15T02:17:18.125Z,19.40
2019-02-15T02:20:23.540Z,19.40
2019-02-15T02:23:28.953Z,19.40
2019-02-15T02:26:36.472Z,19.30
2019-02-15T02:29:41.865Z,19.30
2019-02-15T02:32:47.245Z,19.30
2019-02-15T02:35:52.674Z,19.30
2019-02-15T02:38:58.046Z,19.30
2019-02-15T02:42:03.453Z,19.30
2019-02-15T02:45:08.897Z,19.20
2019-02-15T02:48:14.386Z,19.20
2019-02-15T02:51:19.777Z,19.20
2019-02-15T02:54:25.187Z,19.10
2019-02-15T02:57:33.418Z,19.10
2019-02-15T03:00:38.896Z,19.10
2019-02-15T03:03:45.474Z,19.00
2019-02-15T03:06:50.870Z,19.00
2019-02-15T03:09:57.285Z,18.90
2019-02-15T03:13:02.649Z,18.90
2019-02-15T03:16:08.053Z,18.90
2019-02-15T03:19:13.473Z,18.90
2019-02-15T03:22:18.891Z,18.80
2019-02-15T03:25:24.311Z,18.80
2019-02-15T03:28:29.701Z,18.80
2019-02-15T03:31:35.108Z,18.80
2019-02-15T03:34:40.540Z,18.90
2019-02-15T03:38:06.581Z,18.90
2019-02-15T03:41:29.189Z,19.00
2019-02-15T03:44:34.913Z,19.00
2019-02-15T03:47:40.317Z,19.10
2019-02-15T03:50:47.521Z,19.20
2019-02-15T03:53:53.142Z,19.20
2019-02-15T03:56:58.842Z,19.30
2019-02-15T04:00:05.272Z,19.30
2019-02-15T04:03:10.953Z,19.30
2019-02-15T04:06:16.442Z,19.40
2019-02-15T04:09:21.827Z,19.50
2019-02-15T04:12:27.317Z,19.50
2019-02-15T04:15:32.723Z,19.60
2019-02-15T04:18:38.123Z,19.60
2019-02-15T04:21:43.540Z,19.60
2019-02-15T04:24:48.931Z,19.60
2019-02-15T04:27:54.345Z,19.60
2019-02-15T04:30:59.726Z,19.60
2019-02-15T04:34:05.089Z,19.60
2019-02-15T04:37:10.497Z,19.50
2019-02-15T04:40:15.912Z,19.50
2019-02-15T04:43:21.304Z,19.50
2019-02-15T04:46:26.720Z,19.40
2019-02-15T04:49:32.122Z,19.40
2019-02-15T04:52:37.484Z,19.30
2019-02-15T04:55:42.898Z,19.30
2019-02-15T04:58:48.291Z,19.20
2019-02-15T05:01:53.691Z,19.20
2019-02-15T05:04:59.060Z,19.10
2019-02-15T05:08:04.503Z,19.10
2019-02-15T05:11:09.913Z,19.10
2019-02-15T05:14:15.298Z,19.10
2019-02-15T05:17:20.729Z,19.10
2019-02-15T05:20:26.132Z,19.10
2019-02-15T05:23:34.134Z,19.00
2019-02-15T05:26:40.714Z,19.00
2019-02-15T05:29:46.121Z,19.10
2019-02-15T05:32:52.067Z,19.20
2019-02-15T05:35:57.482Z,19.20
2019-02-15T05:39:04.702Z,19.20
2019-02-15T05:42:11.217Z,19.20
2019-02-15T05:45:16.615Z,19.20
2019-02-15T05:48:22.008Z,19.20
2019-02-15T05:51:29.227Z,19.20
2019-02-15T05:54:34.629Z,19.10
2019-02-15T05:57:40.059Z,19.10
2019-02-15T06:00:45.443Z,19.10
2019-02-15T06:03:50.847Z,19.00
2019-02-15T06:06:56.273Z,18.90
2019-02-15T06:10:01.686Z,18.90
2019-02-15T06:13:07.144Z,18.90
2019-02-15T06:16:14.002Z,18.90
2019-02-15T06:19:19.400Z,18.80
2019-02-15T06:22:24.777Z,18.80
2019-02-15T06:25:31.685Z,18.90
2019-02-15T06:28:37.062Z,18.90
2019-02-15T06:31:44.713Z,18.90
2019-02-15T06:34:51.133Z,18.90
2019-02-15T06:37:59.446Z,19.00
2019-02-15T06:41:05.055Z,19.00
2019-02-15T06:44:10.469Z,19.00
2019-02-15T06:47:17.821Z,19.00
2019-02-15T06:50:23.230Z,19.10
2019-02-15T06:53:28.634Z,19.00
2019-02-15T06:56:34.040Z,19.00
2019-02-15T07:00:07.468Z,19.00
2019-02-15T07:03:47.229Z,19.00
2019-02-15T07:06:54.431Z,19.00
2019-02-15T07:09:59.853Z,18.90
2019-02-15T07:13:07.052Z,18.90
2019-02-15T07:16:16.120Z,18.90
2019-02-15T07:19:21.549Z,18.90
2019-02-15T07:22:26.948Z,18.90
2019-02-15T07:25:33.950Z,18.90
2019-02-15T07:28:39.822Z,18.90
2019-02-15T07:31:45.619Z,19.00
2019-02-15T07:34:51.052Z,19.00
2019-02-15T07:37:56.451Z,19.10
2019-02-15T07:41:01.847Z,19.10
2019-02-15T07:44:09.071Z,19.20
2019-02-15T07:47:14.661Z,19.50
2019-02-15T07:50:21.878Z,19.80
2019-02-15T07:53:27.258Z,20.10
2019-02-15T07:56:32.644Z,20.30
2019-02-15T07:59:38.064Z,20.80
2019-02-15T08:02:43.423Z,21.20
2019-02-15T08:05:48.821Z,21.10
2019-02-15T08:08:54.244Z,20.70
2019-02-15T08:11:59.826Z,20.20
2019-02-15T08:15:05.472Z,19.80
2019-02-15T08:18:10.842Z,19.60
2019-02-15T08:21:16.638Z,19.60
2019-02-15T08:24:22.279Z,19.50
2019-02-15T08:27:27.691Z,19.50
2019-02-15T08:30:33.064Z,19.50
2019-02-15T08:33:39.598Z,19.50
2019-02-15T08:36:45.039Z,19.50
2019-02-15T08:39:50.424Z,19.60
2019-02-15T08:42:56.238Z,19.60
2019-02-15T08:46:03.441Z,19.70
2019-02-15T08:49:08.777Z,20.10
2019-02-15T08:52:14.169Z,20.30
2019-02-15T08:55:19.592Z,20.50
2019-02-15T08:58:25.287Z,20.50
2019-02-15T09:01:30.698Z,20.60
2019-02-15T09:04:36.088Z,20.60
2019-02-15T09:07:41.909Z,20.50
2019-02-15T09:10:49.130Z,20.50
2019-02-15T09:13:54.534Z,20.40
2019-02-15T09:16:59.954Z,20.40
2019-02-15T09:20:06.559Z,20.30
2019-02-15T09:23:12.335Z,20.20
2019-02-15T09:26:18.375Z,20.20
2019-02-15T09:29:24.010Z,20.10
2019-02-15T09:32:29.469Z,20.10
2019-02-15T09:35:34.923Z,20.10
2019-02-15T09:38:40.352Z,20.10
2019-02-15T09:41:45.744Z,20.10
2019-02-15T09:44:51.165Z,20.10
2019-02-15T09:47:56.539Z,20.20
2019-02-15T09:51:01.922Z,20.20
2019-02-15T09:54:07.335Z,20.30
2019-02-15T09:57:12.712Z,20.30
2019-02-15T10:00:19.211Z,20.40
2019-02-15T10:03:24.630Z,20.50
2019-02-15T10:06:31.911Z,20.50
2019-02-15T10:09:37.309Z,20.50
2019-02-15T10:12:43.810Z,20.60
2019-02-15T10:15:49.192Z,20.60
2019-02-15T10:18:54.652Z,20.50
2019-02-15T10:22:00.003Z,20.50
2019-02-15T10:25:05.918Z,20.50
2019-02-15T10:28:11.324Z,20.50
2019-02-15T10:31:18.309Z,20.40
2019-02-15T10:34:24.816Z,20.40
2019-02-15T10:37:30.229Z,20.30
2019-02-15T10:40:35.657Z,20.30
2019-02-15T10:43:41.082Z,20.30
2019-02-15T10:46:46.474Z,20.20
2019-02-15T10:49:51.909Z,20.20
2019-02-15T10:52:58.795Z,20.10
2019-02-15T10:56:05.398Z,20.10
2019-02-15T10:59:11.268Z,20.10
2019-02-15T11:02:18.470Z,20.10
2019-02-15T11:05:24.877Z,20.10
2019-02-15T11:08:30.273Z,20.10
2019-02-15T11:11:35.824Z,20.20
2019-02-15T11:14:41.562Z,20.10
2019-02-15T11:17:48.191Z,20.20
2019-02-15T11:20:53.561Z,20.20
2019-02-15T11:23:58.977Z,20.20
2019-02-15T11:27:04.366Z,20.20
2019-02-15T11:30:12.767Z,20.20
2019-02-15T11:33:18.155Z,20.20
2019-02-15T11:36:25.990Z,20.20
2019-02-15T11:39:31.360Z,20.20
2019-02-15T11:42:36.765Z,20.20
2019-02-15T11:45:42.170Z,20.20
2019-02-15T11:48:47.575Z,20.10
2019-02-15T11:51:52.988Z,20.10
2019-02-15T11:55:03.937Z,20.10
2019-02-15T11:58:09.358Z,20.00
2019-02-15T12:01:14.815Z,20.00
2019-02-15T12:04:20.240Z,20.00
2019-02-15T12:07:25.635Z,20.00
2019-02-15T12:10:31.565Z,19.90
2019-02-15T12:13:37.018Z,19.90
2019-02-15T12:16:42.424Z,19.90
2019-02-15T12:19:50.219Z,19.90
2019-02-15T12:22:55.617Z,19.80
2019-02-15T12:26:01.055Z,19.80
2019-02-15T12:29:06.446Z,19.80
2019-02-15T12:32:11.870Z,19.80
2019-02-15T12:35:18.469Z,19.80
2019-02-15T12:38:23.874Z,19.70
2019-02-15T12:41:29.267Z,19.80
2019-02-15T12:44:34.678Z,20.00
2019-02-15T12:47:40.065Z,20.30
2019-02-15T12:50:45.566Z,20.50
2019-02-15T12:53:51.803Z,20.70
2019-02-15T12:56:57.231Z,20.90
2019-02-15T13:00:13.892Z,21.10
2019-02-15T13:03:38.378Z,21.20
2019-02-15T13:06:46.911Z,21.30
2019-02-15T13:09:52.392Z,21.50
2019-02-15T13:12:58.809Z,21.60
2019-02-15T13:16:11.409Z,21.70
2019-02-15T13:19:21.155Z,21.80
2019-02-15T13:22:39.216Z,21.90
2019-02-15T13:25:54.988Z,22.00
2019-02-15T13:29:09.534Z,22.10
2019-02-15T13:32:36.758Z,22.10
2019-02-15T13:35:48.907Z,22.30
2019-02-15T13:38:56.096Z,22.30
2019-02-15T13:42:01.500Z,22.40
2019-02-15T13:45:08.753Z,22.10
2019-02-15T13:48:14.137Z,22.30
2019-02-15T13:51:19.511Z,22.50
2019-02-15T13:54:26.432Z,22.50
2019-02-15T13:57:31.868Z,22.60
2019-02-15T14:00:38.837Z,22.70
2019-02-15T14:03:44.238Z,22.70
2019-02-15T14:06:56.096Z,22.80
2019-02-15T14:10:03.324Z,22.80
2019-02-15T14:13:09.208Z,22.90
2019-02-15T14:16:14.610Z,22.80
2019-02-15T14:19:20.019Z,22.80
2019-02-15T14:22:25.587Z,22.80
2019-02-15T14:25:31.128Z,22.80
2019-02-15T14:28:36.597Z,22.80
2019-02-15T14:31:42.016Z,22.80
2019-02-15T14:34:47.430Z,22.80
2019-02-15T14:37:53.270Z,22.90
2019-02-15T14:41:00.475Z,22.90
2019-02-15T14:44:05.900Z,22.90
2019-02-15T14:47:11.300Z,22.90
2019-02-15T14:50:16.766Z,22.90
2019-02-15T14:53:22.145Z,22.90
2019-02-15T14:56:27.540Z,23.00
2019-02-15T14:59:33.062Z,23.00
2019-02-15T15:02:38.601Z,23.00
2019-02-15T15:05:43.983Z,23.00
2019-02-15T15:08:52.707Z,23.00
2019-02-15T15:11:58.121Z,23.10
2019-02-15T15:15:04.525Z,22.80
2019-02-15T15:18:13.405Z,23.00
2019-02-15T15:21:19.163Z,23.10
2019-02-15T15:24:25.407Z,23.20
2019-02-15T15:27:31.707Z,23.30
2019-02-15T15:30:38.079Z,23.30
2019-02-15T15:33:43.971Z,23.40
2019-02-15T15:36:50.173Z,23.40
2019-02-15T15:39:56.266Z,23.50
2019-02-15T15:43:03.798Z,23.50
2019-02-15T15:46:10.151Z,23.50
2019-02-15T15:49:17.004Z,23.30
2019-02-15T15:52:23.566Z,23.40
2019-02-15T15:55:29.786Z,23.50
2019-02-15T15:58:36.179Z,23.50
2019-02-15T16:01:42.625Z,23.60
2019-02-15T16:04:48.078Z,23.70
2019-02-15T16:07:53.528Z,23.70
2019-02-15T16:10:59.140Z,23.70
2019-02-15T16:14:07.690Z,23.80
2019-02-15T16:17:13.206Z,23.80
2019-02-15T16:20:19.744Z,23.80
2019-02-15T16:23:25.294Z,23.90
2019-02-15T16:26:30.690Z,23.90
2019-02-15T16:29:37.310Z,24.00
2019-02-15T16:32:44.594Z,24.00
2019-02-15T16:35:51.524Z,24.00
2019-02-15T16:38:59.789Z,24.00
2019-02-15T16:42:05.224Z,24.10
2019-02-15T16:45:13.028Z,24.00
2019-02-15T16:48:18.450Z,24.00
2019-02-15T16:51:23.871Z,24.00
2019-02-15T16:54:29.281Z,24.00
2019-02-15T16:57:35.028Z,24.00
2019-02-15T17:00:40.587Z,24.00
2019-02-15T17:03:46.035Z,24.00
2019-02-15T17:06:51.472Z,24.00
2019-02-15T17:09:56.868Z,24.00
2019-02-15T17:13:02.250Z,24.00
2019-02-15T17:16:07.866Z,24.00
2019-02-15T17:19:13.299Z,24.00
2019-02-15T17:22:20.489Z,24.00
2019-02-15T17:25:26.047Z,24.00
2019-02-15T17:28:32.582Z,24.00
2019-02-15T17:31:39.592Z,24.00
2019-02-15T17:34:45.364Z,24.00
2019-02-15T17:37:50.777Z,24.00
2019-02-15T17:40:56.169Z,24.00
2019-02-15T17:44:02.247Z,24.10
2019-02-15T17:47:07.981Z,24.00
2019-02-15T17:50:15.280Z,24.10
2019-02-15T17:53:20.677Z,24.10
2019-02-15T17:56:26.050Z,24.00
2019-02-15T17:59:31.471Z,24.10
2019-02-15T18:02:36.856Z,24.10
2019-02-15T18:05:42.276Z,24.10
2019-02-15T18:08:48.066Z,24.10
2019-02-15T18:11:53.463Z,24.10
2019-02-15T18:14:58.925Z,24.10
2019-02-15T18:18:04.342Z,24.10
2019-02-15T18:21:11.932Z,24.10
2019-02-15T18:24:17.307Z,24.10
2019-02-15T18:27:25.674Z,24.10
2019-02-15T18:30:32.110Z,24.10
2019-02-15T18:33:37.569Z,24.10
2019-02-15T18:36:42.997Z,24.10
2019-02-15T18:39:48.375Z,24.10
2019-02-15T18:42:53.755Z,24.10
2019-02-15T18:45:59.137Z,24.10
2019-02-15T18:49:08.005Z,24.10
2019-02-15T18:52:13.745Z,24.10
2019-02-15T18:55:19.434Z,24.10
2019-02-15T18:58:25.260Z,24.10
2019-02-15T19:01:30.694Z,24.10
2019-02-15T19:04:36.190Z,24.10
2019-02-15T19:07:41.554Z,24.10
2019-02-15T19:10:46.999Z,24.10
2019-02-15T19:13:55.422Z,24.10
2019-02-15T19:17:00.793Z,24.10
2019-02-15T19:20:07.234Z,24.10
2019-02-15T19:23:12.649Z,24.10
2019-02-15T19:26:21.055Z,24.10
2019-02-15T19:29:26.443Z,24.10
2019-02-15T19:32:32.185Z,24.10
2019-02-15T19:35:39.159Z,24.10
2019-02-15T19:38:46.113Z,24.10
2019-02-15T19:41:53.020Z,24.10
2019-02-15T19:44:59.599Z,24.10
2019-02-15T19:48:06.243Z,24.00
2019-02-15T19:51:14.900Z,24.10
2019-02-15T19:54:20.312Z,24.10
2019-02-15T19:57:25.709Z,24.10
2019-02-15T20:00:31.954Z,24.10
2019-02-15T20:03:38.939Z,24.10
2019-02-15T20:06:44.343Z,24.10
2019-02-15T20:09:49.733Z,24.10
2019-02-15T20:12:55.158Z,24.10
2019-02-15T20:16:00.900Z,24.10
2019-02-15T20:19:06.619Z,24.10
2019-02-15T20:22:13.238Z,24.10
2019-02-15T20:25:19.118Z,24.10
2019-02-15T20:28:24.497Z,24.10
2019-02-15T20:31:29.903Z,24.10
2019-02-15T20:34:35.372Z,24.10
2019-02-15T20:37:40.778Z,24.00
2019-02-15T20:40:46.163Z,24.00
2019-02-15T20:43:51.620Z,24.00
2019-02-15T20:46:59.027Z,24.00
2019-02-15T20:50:04.430Z,24.00
2019-02-15T20:53:11.646Z,24.00
2019-02-15T20:56:18.531Z,24.00
2019-02-15T20:59:24.332Z,24.00
2019-02-15T21:02:29.699Z,24.00
2019-02-15T21:05:35.115Z,24.00
2019-02-15T21:08:40.901Z,23.90
2019-02-15T21:11:46.668Z,23.90
2019-02-15T21:14:52.079Z,23.80
2019-02-15T21:18:00.323Z,23.70
2019-02-15T21:21:05.756Z,23.60
2019-02-15T21:24:13.809Z,23.60
2019-02-15T21:27:19.421Z,23.50
2019-02-15T21:30:24.910Z,23.40
2019-02-15T21:33:30.414Z,23.40
2019-02-15T21:36:37.184Z,23.30
2019-02-15T21:39:42.610Z,23.20
2019-02-15T21:42:48.370Z,23.10
2019-02-15T21:45:54.156Z,23.10
2019-02-15T21:48:59.587Z,23.00
2019-02-15T21:52:05.351Z,22.90
2019-02-15T21:55:10.999Z,22.80
2019-02-15T21:58:16.358Z,22.80
2019-02-15T22:01:21.744Z,22.70
2019-02-15T22:04:27.349Z,22.70
2019-02-15T22:07:33.180Z,22.60
2019-02-15T22:10:38.584Z,22.50
2019-02-15T22:13:45.817Z,22.50
2019-02-15T22:16:53.985Z,22.40
2019-02-15T22:20:01.218Z,22.40
2019-02-15T22:23:06.637Z,22.40
2019-02-15T22:26:11.989Z,22.40
2019-02-15T22:29:17.419Z,22.40
2019-02-15T22:32:23.142Z,22.40
2019-02-15T22:35:28.637Z,22.50
2019-02-15T22:38:34.062Z,22.60
2019-02-15T22:41:39.930Z,22.60
2019-02-15T22:44:45.327Z,22.70
2019-02-15T22:47:51.081Z,22.70
2019-02-15T22:50:56.474Z,22.70
2019-02-15T22:54:01.837Z,22.80
2019-02-15T22:57:07.743Z,22.80
2019-02-15T23:00:22.565Z,22.80
2019-02-15T23:03:28.594Z,22.80
2019-02-15T23:06:34.020Z,22.80
2019-02-15T23:09:39.799Z,22.80
2019-02-15T23:12:46.510Z,22.80
2019-02-15T23:15:53.469Z,22.80
2019-02-15T23:18:59.300Z,22.80
2019-02-15T23:22:04.694Z,22.90
2019-02-15T23:25:10.114Z,22.80
2019-02-15T23:28:15.513Z,22.80
2019-02-15T23:31:20.921Z,22.80
2019-02-15T23:34:26.736Z,22.80
2019-02-15T23:37:33.215Z,22.90
2019-02-15T23:40:39.036Z,22.90
2019-02-15T23:43:44.421Z,22.90
2019-02-15T23:46:49.821Z,22.90
2019-02-15T23:49:55.219Z,22.90
2019-02-15T23:53:00.651Z,22.90
2019-02-15T23:56:06.031Z,22.90
2019-02-15T23:59:11.396Z,22.90
